Wetterdaten: Woche 04.11.13 - 10.11.13 (KW45)
Datum Zeit Temp. A. Feuchte A. Luftdruck Regen Wind Richtung Taupunkt Windchill Windben
04.11.2013 00:00 9,7 C 65 % 1012,3 hPa 0,0 l/m 2,4 km/h N 3,4 C 9,7 C 10,9 km/h
04.11.2013 01:00 8,4 C 69 % 1012,0 hPa 0,0 l/m 0,0 km/h N 3,1 C 8,4 C 0,0 km/h
04.11.2013 02:00 6,9 C 76 % 1012,0 hPa 0,0 l/m 0,0 km/h N 3,0 C 6,9 C 0,0 km/h
04.11.2013 03:00 6,2 C 81 % 1011,6 hPa 0,0 l/m 0,1 km/h N 3,1 C 6,2 C 1,2 km/h
04.11.2013 04:00 6,8 C 79 % 1010,9 hPa 0,0 l/m 0,5 km/h N 3,4 C 6,8 C 2,8 km/h
04.11.2013 05:00 7,2 C 78 % 1009,8 hPa 0,0 l/m 0,0 km/h N 3,5 C 7,2 C 0,4 km/h
04.11.2013 06:00 7,0 C 79 % 1008,9 hPa 0,0 l/m 0,5 km/h N 3,5 C 7,0 C 3,2 km/h
04.11.2013 07:00 7,6 C 78 % 1007,9 hPa 0,0 l/m 0,3 km/h N 4,0 C 7,6 C 3,2 km/h
04.11.2013 08:00 9,5 C 71 % 1006,6 hPa 0,0 l/m 7,5 km/h N 4,5 C 7,8 C 19,3 km/h
04.11.2013 09:00 10,4 C 67 % 1005,5 hPa 0,0 l/m 10,0 km/h N 4,6 C 8,0 C 26,9 km/h
04.11.2013 10:00 10,9 C 64 % 1004,2 hPa 0,0 l/m 13,4 km/h N 4,2 C 6,9 C 37,8 km/h
04.11.2013 11:00 11,5 C 63 % 1002,8 hPa 0,0 l/m 12,7 km/h N 4,6 C 7,9 C 33,4 km/h
04.11.2013 12:00 11,8 C 66 % 1001,0 hPa 0,0 l/m 13,5 km/h N 5,7 C 8,0 C 33,0 km/h
04.11.2013 13:00 11,4 C 73 % 999,6 hPa 0,0 l/m 12,3 km/h N 6,6 C 8,0 C 30,2 km/h
04.11.2013 14:00 10,9 C 77 % 998,1 hPa 0,0 l/m 12,9 km/h N 6,9 C 7,1 C 29,0 km/h
04.11.2013 15:00 10,3 C 79 % 997,4 hPa 0,0 l/m 9,7 km/h N 6,8 C 8,1 C 24,1 km/h
04.11.2013 16:00 10,0 C 80 % 996,4 hPa 0,0 l/m 6,0 km/h N 6,6 C 9,9 C 16,5 km/h
04.11.2013 17:00 9,1 C 81 % 995,8 hPa 0,0 l/m 1,9 km/h N 6,0 C 9,1 C 6,0 km/h
04.11.2013 18:00 7,5 C 83 % 995,5 hPa 0,0 l/m 0,1 km/h N 4,7 C 7,5 C 2,0 km/h
04.11.2013 19:00 7,2 C 85 % 995,1 hPa 0,0 l/m 0,4 km/h N 4,8 C 7,2 C 3,6 km/h
04.11.2013 20:00 7,6 C 84 % 995,2 hPa 0,0 l/m 0,4 km/h N 5,1 C 7,6 C 4,0 km/h
04.11.2013 21:00 7,4 C 84 % 995,1 hPa 0,0 l/m 0,1 km/h N 4,9 C 7,4 C 0,8 km/h
04.11.2013 22:00 6,1 C 85 % 995,3 hPa 0,0 l/m 0,1 km/h N 3,8 C 6,1 C 0,8 km/h
04.11.2013 23:00 5,8 C 84 % 995,3 hPa 0,0 l/m 0,5 km/h N 3,2 C 5,8 C 3,6 km/h
05.11.2013 00:00 7,7 C 81 % 995,8 hPa 0,0 l/m 1,0 km/h N 4,6 C 7,7 C 6,8 km/h
05.11.2013 01:00 9,4 C 84 % 996,3 hPa 0,5 l/m 1,4 km/h N 6,8 C 9,4 C 7,2 km/h
05.11.2013 02:00 9,6 C 85 % 996,5 hPa 0,5 l/m 0,1 km/h N 7,2 C 9,6 C 2,0 km/h
05.11.2013 03:00 9,3 C 85 % 997,0 hPa 1,6 l/m 0,0 km/h N 6,9 C 9,3 C 0,0 km/h
05.11.2013 04:00 9,1 C 84 % 997,4 hPa 1,3 l/m 0,0 km/h N 6,5 C 9,1 C 0,0 km/h
05.11.2013 05:00 9,0 C 84 % 997,8 hPa 1,6 l/m 0,0 km/h N 6,4 C 9,0 C 0,0 km/h
05.11.2013 06:00 8,8 C 82 % 997,9 hPa 0,8 l/m 0,2 km/h N 5,9 C 8,8 C 3,2 km/h
05.11.2013 07:00 9,4 C 81 % 998,4 hPa 0,5 l/m 3,0 km/h N 6,4 C 9,4 C 16,1 km/h
05.11.2013 08:00 9,9 C 83 % 999,1 hPa 0,3 l/m 5,6 km/h N 7,2 C 9,9 C 18,5 km/h
05.11.2013 09:00 10,0 C 85 % 999,9 hPa 0,3 l/m 6,8 km/h N 7,6 C 9,6 C 16,5 km/h
05.11.2013 10:00 9,3 C 85 % 1000,6 hPa 1,6 l/m 9,8 km/h N 6,9 C 7,0 C 24,1 km/h
05.11.2013 11:00 8,8 C 84 % 1000,7 hPa 0,3 l/m 9,9 km/h N 6,1 C 6,3 C 23,7 km/h
05.11.2013 12:00 8,7 C 81 % 1000,7 hPa 0,0 l/m 7,0 km/h N 5,6 C 8,0 C 20,5 km/h
05.11.2013 13:00 8,9 C 76 % 1000,3 hPa 0,0 l/m 6,9 km/h N 4,9 C 8,3 C 18,9 km/h
05.11.2013 14:00 9,1 C 65 % 999,9 hPa 0,0 l/m 8,8 km/h N 2,9 C 7,3 C 26,1 km/h
05.11.2013 15:00 8,8 C 60 % 999,8 hPa 0,0 l/m 9,1 km/h N 1,6 C 6,9 C 20,5 km/h
05.11.2013 16:00 8,5 C 57 % 999,5 hPa 0,0 l/m 11,0 km/h N 0,5 C 5,4 C 25,3 km/h
05.11.2013 17:00 8,2 C 58 % 999,9 hPa 0,0 l/m 10,3 km/h N 0,4 C 5,5 C 26,5 km/h
05.11.2013 18:00 8,1 C 62 % 1000,2 hPa 0,0 l/m 7,3 km/h N 1,1 C 6,9 C 20,1 km/h
05.11.2013 19:00 7,5 C 64 % 1000,2 hPa 0,0 l/m 2,9 km/h N 1,1 C 7,5 C 12,5 km/h
05.11.2013 20:00 6,0 C 69 % 1000,2 hPa 0,0 l/m 0,4 km/h N 0,7 C 6,0 C 3,6 km/h
05.11.2013 21:00 4,1 C 73 % 1000,2 hPa 0,0 l/m 0,0 km/h N -0,4 C 4,1 C 0,4 km/h
05.11.2013 22:00 2,1 C 79 % 999,9 hPa 0,0 l/m 0,0 km/h N -1,2 C 2,1 C 0,0 km/h
05.11.2013 23:00 1,1 C 83 % 999,9 hPa 0,0 l/m 0,0 km/h N -1,4 C 1,1 C 0,4 km/h
06.11.2013 00:00 1,2 C 85 % 999,4 hPa 0,0 l/m 0,0 km/h N -1,1 C 1,2 C 0,0 km/h
06.11.2013 01:00 1,3 C 85 % 999,4 hPa 0,0 l/m 0,0 km/h N -1,0 C 1,3 C 0,0 km/h
06.11.2013 02:00 2,3 C 84 % 999,4 hPa 0,0 l/m 0,0 km/h N -0,2 C 2,3 C 0,8 km/h
06.11.2013 03:00 3,2 C 83 % 999,6 hPa 0,0 l/m 0,4 km/h N 0,6 C 3,2 C 4,0 km/h
06.11.2013 04:00 3,5 C 84 % 999,9 hPa 0,0 l/m 0,2 km/h N 1,0 C 3,5 C 2,8 km/h
06.11.2013 05:00 3,2 C 84 % 1000,0 hPa 0,0 l/m 0,7 km/h N 0,8 C 3,2 C 7,2 km/h
06.11.2013 06:00 7,3 C 80 % 1000,1 hPa 0,0 l/m 6,9 km/h N 3,9 C 5,9 C 22,5 km/h
06.11.2013 07:00 10,7 C 68 % 1000,2 hPa 0,0 l/m 16,9 km/h N 5,0 C 5,4 C 45,5 km/h
06.11.2013 08:00 10,5 C 69 % 1001,5 hPa 0,0 l/m 17,5 km/h N 5,0 C 4,8 C 44,3 km/h
06.11.2013 09:00 10,4 C 71 % 1002,2 hPa 0,3 l/m 15,4 km/h N 5,3 C 5,5 C 35,0 km/h
06.11.2013 10:00 11,6 C 62 % 1002,9 hPa 0,0 l/m 10,3 km/h N 4,5 C 9,2 C 32,6 km/h
06.11.2013 11:00 10,9 C 65 % 1003,8 hPa 0,0 l/m 6,4 km/h N 4,7 C 10,6 C 24,5 km/h
06.11.2013 12:00 10,2 C 69 % 1004,4 hPa 0,0 l/m 7,0 km/h N 4,8 C 9,4 C 26,1 km/h
06.11.2013 13:00 10,6 C 69 % 1004,8 hPa 0,0 l/m 3,7 km/h N 5,2 C 10,6 C 17,3 km/h
06.11.2013 14:00 10,4 C 71 % 1005,3 hPa 0,0 l/m 4,6 km/h N 5,3 C 10,3 C 18,5 km/h
06.11.2013 15:00 10,0 C 71 % 1006,0 hPa 0,0 l/m 4,8 km/h N 4,9 C 10,0 C 20,5 km/h
06.11.2013 16:00 9,6 C 72 % 1006,8 hPa 0,0 l/m 4,5 km/h N 4,9 C 9,6 C 20,5 km/h
06.11.2013 17:00 9,4 C 73 % 1007,7 hPa 0,0 l/m 4,6 km/h N 4,7 C 9,4 C 17,7 km/h
06.11.2013 18:00 9,3 C 73 % 1008,2 hPa 0,0 l/m 4,6 km/h N 4,7 C 9,3 C 17,3 km/h
06.11.2013 19:00 9,1 C 74 % 1008,8 hPa 0,0 l/m 1,7 km/h N 4,8 C 9,1 C 10,1 km/h
06.11.2013 20:00 8,6 C 79 % 1009,6 hPa 0,3 l/m 1,2 km/h N 5,2 C 8,6 C 11,7 km/h
06.11.2013 21:00 8,1 C 83 % 1010,2 hPa 0,8 l/m 0,7 km/h N 5,3 C 8,1 C 4,4 km/h
06.11.2013 22:00 7,7 C 84 % 1010,6 hPa 1,0 l/m 0,8 km/h N 5,2 C 7,7 C 4,4 km/h
06.11.2013 23:00 7,6 C 84 % 1010,8 hPa 0,3 l/m 0,5 km/h N 5,0 C 7,6 C 4,0 km/h
07.11.2013 00:00 7,6 C 83 % 1010,9 hPa 1,6 l/m 0,3 km/h N 4,9 C 7,6 C 3,2 km/h
07.11.2013 01:00 7,7 C 82 % 1011,0 hPa 0,0 l/m 1,2 km/h N 4,8 C 7,7 C 5,2 km/h
07.11.2013 02:00 7,6 C 82 % 1011,0 hPa 0,0 l/m 0,9 km/h N 4,7 C 7,6 C 5,6 km/h
07.11.2013 03:00 8,0 C 81 % 1010,8 hPa 0,0 l/m 1,3 km/h N 4,9 C 8,0 C 8,1 km/h
07.11.2013 04:00 8,1 C 82 % 1010,7 hPa 0,0 l/m 0,8 km/h N 5,1 C 8,1 C 6,0 km/h
07.11.2013 05:00 9,9 C 81 % 1010,5 hPa 0,0 l/m 3,6 km/h N 6,8 C 9,6 C 16,9 km/h
07.11.2013 06:00 14,5 C 70 % 1010,6 hPa 0,0 l/m 9,0 km/h N 9,0 C 13,1 C 26,5 km/h
07.11.2013 07:00 15,0 C 67 % 1010,8 hPa 0,0 l/m 8,9 km/h N 8,9 C 13,7 C 25,0 km/h
07.11.2013 08:00 16,2 C 63 % 1011,1 hPa 0,0 l/m 11,9 km/h N 9,0 C 13,7 C 34,6 km/h
07.11.2013 09:00 17,3 C 60 % 1011,5 hPa 0,0 l/m 8,2 km/h N 9,3 C 16,4 C 25,3 km/h
07.11.2013 10:00 18,3 C 57 % 1011,9 hPa 0,0 l/m 11,1 km/h N 9,6 C 16,4 C 20,9 km/h
07.11.2013 11:00 18,3 C 57 % 1012,1 hPa 0,0 l/m 13,4 km/h N 9,7 C 15,7 C 29,5 km/h
07.11.2013 12:00 18,4 C 57 % 1012,3 hPa 0,0 l/m 8,1 km/h N 9,6 C 17,7 C 26,1 km/h
07.11.2013 13:00 19,2 C 54 % 1012,4 hPa 0,0 l/m 7,9 km/h N 9,6 C 18,5 C 25,0 km/h
07.11.2013 14:00 19,7 C 52 % 1012,6 hPa 0,0 l/m 6,3 km/h N 9,6 C 19,5 C 14,9 km/h
07.11.2013 15:00 18,5 C 55 % 1013,0 hPa 0,0 l/m 3,3 km/h N 9,4 C 18,5 C 11,3 km/h
07.11.2013 16:00 17,4 C 58 % 1013,4 hPa 0,0 l/m 2,3 km/h N 9,0 C 17,4 C 12,9 km/h
07.11.2013 17:00 16,3 C 61 % 1013,8 hPa 0,0 l/m 0,5 km/h N 8,8 C 16,3 C 5,6 km/h
07.11.2013 18:00 14,5 C 66 % 1014,3 hPa 0,0 l/m 0,1 km/h N 8,3 C 14,5 C 1,6 km/h
07.11.2013 19:00 13,0 C 73 % 1014,6 hPa 0,0 l/m 0,1 km/h N 8,2 C 13,0 C 2,0 km/h
07.11.2013 20:00 12,4 C 77 % 1014,5 hPa 0,0 l/m 0,1 km/h N 8,5 C 12,4 C 1,6 km/h
07.11.2013 21:00 12,1 C 78 % 1014,7 hPa 0,0 l/m 0,0 km/h N 8,3 C 12,1 C 1,2 km/h
07.11.2013 22:00 11,7 C 79 % 1014,6 hPa 0,0 l/m 0,3 km/h N 8,1 C 11,7 C 2,4 km/h
07.11.2013 23:00 10,0 C 79 % 1014,6 hPa 0,0 l/m 0,0 km/h N 6,5 C 10,0 C 0,4 km/h
08.11.2013 00:00 8,3 C 83 % 1014,6 hPa 0,0 l/m 0,0 km/h N 5,5 C 8,3 C 0,8 km/h
08.11.2013 01:00 7,3 C 84 % 1014,5 hPa 0,0 l/m 0,1 km/h N 4,8 C 7,3 C 0,8 km/h
08.11.2013 02:00 6,3 C 85 % 1014,5 hPa 0,0 l/m 0,0 km/h N 3,9 C 6,3 C 0,0 km/h
08.11.2013 03:00 5,8 C 84 % 1014,4 hPa 0,0 l/m 0,0 km/h N 3,3 C 5,8 C 0,4 km/h
08.11.2013 04:00 5,5 C 84 % 1014,2 hPa 0,0 l/m 0,0 km/h N 3,0 C 5,5 C 0,0 km/h
08.11.2013 05:00 6,1 C 82 % 1014,1 hPa 0,0 l/m 0,0 km/h N 3,2 C 6,1 C 0,4 km/h
08.11.2013 06:00 5,7 C 82 % 1014,2 hPa 0,0 l/m 0,0 km/h N 2,8 C 5,7 C 0,0 km/h
08.11.2013 07:00 5,5 C 82 % 1014,5 hPa 0,0 l/m 0,0 km/h N 2,6 C 5,5 C 0,0 km/h
08.11.2013 08:00 7,7 C 78 % 1014,7 hPa 0,0 l/m 0,0 km/h N 4,1 C 7,7 C 0,8 km/h
08.11.2013 09:00 9,8 C 80 % 1014,9 hPa 0,0 l/m 0,1 km/h N 6,5 C 9,8 C 2,0 km/h
08.11.2013 10:00 12,5 C 81 % 1014,5 hPa 0,0 l/m 1,1 km/h N 9,3 C 12,5 C 6,0 km/h
08.11.2013 11:00 15,2 C 72 % 1013,8 hPa 0,0 l/m 2,4 km/h N 10,2 C 15,2 C 8,1 km/h
08.11.2013 12:00 17,1 C 68 % 1013,5 hPa 0,0 l/m 1,5 km/h N 11,2 C 17,1 C 6,4 km/h
08.11.2013 13:00 17,6 C 65 % 1013,2 hPa 0,0 l/m 4,4 km/h N 10,9 C 17,6 C 11,7 km/h
08.11.2013 14:00 17,4 C 69 % 1013,2 hPa 0,0 l/m 3,9 km/h N 11,6 C 17,4 C 11,3 km/h
08.11.2013 15:00 15,7 C 73 % 1013,4 hPa 0,0 l/m 2,6 km/h N 10,9 C 15,7 C 10,1 km/h
08.11.2013 16:00 12,9 C 76 % 1013,3 hPa 0,0 l/m 1,0 km/h N 8,8 C 12,9 C 5,2 km/h
08.11.2013 17:00 10,8 C 81 % 1013,3 hPa 0,0 l/m 1,1 km/h N 7,6 C 10,8 C 4,8 km/h
08.11.2013 18:00 9,0 C 82 % 1013,4 hPa 0,0 l/m 0,0 km/h N 6,1 C 9,0 C 0,0 km/h
08.11.2013 19:00 7,4 C 84 % 1013,2 hPa 0,0 l/m 0,0 km/h N 4,8 C 7,4 C 0,0 km/h
08.11.2013 20:00 6,6 C 85 % 1012,6 hPa 0,0 l/m 0,0 km/h N 4,2 C 6,6 C 0,0 km/h
08.11.2013 21:00 5,8 C 85 % 1012,2 hPa 0,0 l/m 0,0 km/h N 3,5 C 5,8 C 0,0 km/h
08.11.2013 22:00 5,1 C 84 % 1011,3 hPa 0,0 l/m 0,0 km/h N 2,6 C 5,1 C 0,0 km/h
08.11.2013 23:00 5,8 C 82 % 1010,8 hPa 0,0 l/m 0,0 km/h N 3,0 C 5,8 C 0,0 km/h
09.11.2013 00:00 7,4 C 80 % 1010,0 hPa 0,0 l/m 0,0 km/h N 4,2 C 7,4 C 0,0 km/h
09.11.2013 01:00 8,2 C 80 % 1009,3 hPa 0,0 l/m 0,0 km/h N 4,8 C 8,2 C 0,0 km/h
09.11.2013 02:00 8,5 C 79 % 1009,0 hPa 0,0 l/m 0,0 km/h N 5,1 C 8,5 C 0,0 km/h
09.11.2013 03:00 8,9 C 79 % 1008,6 hPa 0,0 l/m 0,1 km/h N 5,4 C 8,9 C 1,6 km/h
09.11.2013 04:00 9,1 C 78 % 1008,8 hPa 0,0 l/m 0,5 km/h N 5,5 C 9,1 C 2,4 km/h
09.11.2013 05:00 9,0 C 78 % 1009,4 hPa 0,0 l/m 2,0 km/h N 5,4 C 9,0 C 7,6 km/h
09.11.2013 06:00 9,0 C 78 % 1010,9 hPa 0,0 l/m 2,9 km/h N 5,3 C 9,0 C 16,9 km/h
09.11.2013 07:00 11,7 C 81 % 1011,3 hPa 0,0 l/m 13,5 km/h N 8,5 C 7,8 C 36,2 km/h
09.11.2013 08:00 13,1 C 74 % 1012,4 hPa 0,0 l/m 13,7 km/h N 8,5 C 9,4 C 37,4 km/h
09.11.2013 09:00 12,1 C 73 % 1013,5 hPa 0,0 l/m 10,6 km/h N 7,4 C 9,6 C 30,6 km/h
09.11.2013 10:00 11,3 C 74 % 1013,8 hPa 0,0 l/m 13,9 km/h N 6,9 C 7,2 C 33,8 km/h
09.11.2013 11:00 11,1 C 77 % 1013,9 hPa 1,0 l/m 10,0 km/h N 7,2 C 9,0 C 25,8 km/h
09.11.2013 12:00 10,5 C 81 % 1013,8 hPa 0,8 l/m 2,8 km/h N 7,4 C 10,5 C 12,9 km/h
09.11.2013 13:00 11,2 C 75 % 1013,9 hPa 0,0 l/m 10,8 km/h N 7,0 C 8,6 C 26,1 km/h
09.11.2013 14:00 11,2 C 75 % 1014,4 hPa 0,3 l/m 12,6 km/h N 6,8 C 7,7 C 31,4 km/h
09.11.2013 15:00 10,2 C 80 % 1014,9 hPa 0,8 l/m 10,0 km/h N 6,8 C 7,8 C 24,1 km/h
09.11.2013 16:00 9,5 C 82 % 1014,9 hPa 0,5 l/m 2,9 km/h N 6,6 C 9,5 C 11,7 km/h
09.11.2013 17:00 9,0 C 84 % 1014,7 hPa 0,3 l/m 0,0 km/h N 6,4 C 9,0 C 0,0 km/h
09.11.2013 18:00 8,5 C 85 % 1014,2 hPa 0,0 l/m 0,4 km/h N 6,1 C 8,5 C 2,8 km/h
09.11.2013 19:00 8,3 C 85 % 1014,1 hPa 0,0 l/m 0,7 km/h N 5,9 C 8,3 C 4,4 km/h
09.11.2013 20:00 8,5 C 84 % 1013,4 hPa 0,0 l/m 0,4 km/h N 5,9 C 8,5 C 1,6 km/h
09.11.2013 21:00 8,3 C 84 % 1013,2 hPa 0,0 l/m 0,2 km/h N 5,8 C 8,3 C 2,4 km/h
09.11.2013 22:00 8,2 C 84 % 1013,0 hPa 0,0 l/m 0,0 km/h N 5,7 C 8,2 C 0,0 km/h
09.11.2013 23:00 8,1 C 84 % 1012,2 hPa 0,0 l/m 0,3 km/h N 5,5 C 8,1 C 1,6 km/h
10.11.2013 00:00 8,2 C 83 % 1011,3 hPa 0,0 l/m 0,3 km/h N 5,5 C 8,2 C 2,0 km/h
10.11.2013 01:00 7,9 C 84 % 1011,2 hPa 0,5 l/m 0,0 km/h N 5,3 C 7,9 C 0,0 km/h
10.11.2013 02:00 7,7 C 85 % 1011,0 hPa 0,8 l/m 0,0 km/h N 5,3 C 7,7 C 0,0 km/h
10.11.2013 03:00 7,5 C 85 % 1010,7 hPa 0,3 l/m 0,5 km/h N 5,1 C 7,5 C 5,2 km/h
10.11.2013 04:00 7,3 C 85 % 1010,2 hPa 0,0 l/m 0,0 km/h N 4,9 C 7,3 C 0,0 km/h
10.11.2013 05:00 6,7 C 84 % 1010,1 hPa 0,0 l/m 0,0 km/h N 4,3 C 6,7 C 0,4 km/h
10.11.2013 06:00 6,7 C 83 % 1009,3 hPa 0,0 l/m 0,0 km/h N 4,0 C 6,7 C 0,0 km/h
10.11.2013 07:00 5,7 C 84 % 1008,7 hPa 0,0 l/m 1,0 km/h N 3,1 C 5,7 C 5,2 km/h
10.11.2013 08:00 5,8 C 82 % 1008,3 hPa 0,0 l/m 0,6 km/h N 3,0 C 5,8 C 3,2 km/h
10.11.2013 09:00 7,1 C 83 % 1008,1 hPa 0,0 l/m 1,8 km/h N 4,3 C 7,1 C 8,9 km/h
10.11.2013 10:00 9,8 C 77 % 1007,0 hPa 0,0 l/m 6,0 km/h N 6,0 C 9,8 C 17,3 km/h
10.11.2013 11:00 11,1 C 71 % 1006,0 hPa 0,0 l/m 6,0 km/h N 6,1 C 11,1 C 16,1 km/h
10.11.2013 12:00 11,9 C 70 % 1005,0 hPa 0,0 l/m 4,5 km/h N 6,5 C 11,9 C 14,5 km/h
10.11.2013 13:00 11,9 C 71 % 1004,1 hPa 0,0 l/m 4,5 km/h N 6,7 C 11,9 C 14,5 km/h
10.11.2013 14:00 11,6 C 71 % 1003,4 hPa 0,0 l/m 3,7 km/h N 6,5 C 11,6 C 15,7 km/h
10.11.2013 15:00 10,5 C 77 % 1003,3 hPa 0,0 l/m 3,6 km/h N 6,6 C 10,5 C 12,5 km/h
10.11.2013 16:00 9,5 C 78 % 1003,4 hPa 0,0 l/m 5,4 km/h N 5,8 C 9,5 C 15,3 km/h
10.11.2013 17:00 8,9 C 81 % 1003,9 hPa 0,0 l/m 1,5 km/h N 5,9 C 8,9 C 7,6 km/h
10.11.2013 18:00 7,8 C 82 % 1004,3 hPa 0,0 l/m 0,0 km/h N 4,9 C 7,8 C 0,4 km/h
10.11.2013 19:00 6,9 C 84 % 1005,4 hPa 0,0 l/m 0,0 km/h N 4,3 C 6,9 C 0,0 km/h
10.11.2013 20:00 7,7 C 84 % 1006,9 hPa 0,0 l/m 0,2 km/h N 5,1 C 7,7 C 2,0 km/h
10.11.2013 21:00 7,9 C 84 % 1008,1 hPa 0,0 l/m 2,5 km/h N 5,3 C 7,9 C 8,0 km/h
10.11.2013 22:00 8,2 C 85 % 1008,9 hPa 0,0 l/m 5,8 km/h N 5,9 C 8,1 C 18,5 km/h
10.11.2013 23:00 8,3 C 85 % 1010,2 hPa 0,5 l/m 5,0 km/h N 5,9 C 8,2 C 18,5 km/h
Min-Datum _ 05.11.13 07.11.13 04.11.13 - 04.11.13 - 05.11.13 05.11.13 04.11.13
_ Min-Zeit 23:45 13:30 19:15 - 01:00 - 22:45 23:45 01:00
Minimum _ 1,0 C 52 % 995,0 hPa - 0,0 km/h - -1,5 C 1,0 C 0,0 km/h
Max-Datum _ 07.11.13 05.11.13 08.11.13 05.11.13 06.11.13 - 08.11.13 07.11.13 06.11.13
_ Max-Zeit 14:16 05:45 09:30 03:00 08:00 - 14:00 14:16 07:45
Maximum _ 19,8 C 86 % 1015,1 hPa 1,6 l/m 20,5 km/h
N
- 11,9 C 19,8 C 49,9 km/h
N
Durchschnitt _ 9,4 C 77 % 1007,4 hPa #19,0 l/m 3,6 km/h N 5,4 C 8,8 C 11,0 km/h